createdAt,value
2019-01-02T00:00:35.626Z,102061.05
2019-01-02T00:05:38.464Z,102053.77
2019-01-02T00:11:00.753Z,102047.16
2019-01-02T00:16:24.844Z,101915.52
2019-01-02T00:21:47.041Z,102046.69
2019-01-02T00:27:09.232Z,102059.68
2019-01-02T00:32:33.306Z,102048.44
2019-01-02T00:37:55.493Z,102054.08
2019-01-02T00:43:17.681Z,102084.35
2019-01-02T00:48:33.222Z,102095.39
2019-01-02T00:53:55.391Z,102082.78
2019-01-02T00:59:17.588Z,102069.31
2019-01-02T01:04:39.791Z,102067.73
2019-01-02T01:09:42.775Z,102081.63
2019-01-02T01:15:05.538Z,102070.87
2019-01-02T01:20:12.415Z,102083.89
2019-01-02T01:25:15.097Z,102102.23
2019-01-02T01:30:37.275Z,102104.02
2019-01-02T01:36:01.358Z,102022.58
2019-01-02T01:41:04.034Z,102118.74
2019-01-02T01:46:07.432Z,102134.87
2019-01-02T01:51:23.146Z,102122.41
2019-01-02T01:56:25.815Z,101861.73
2019-01-02T02:01:47.986Z,102138.86
2019-01-02T02:07:10.180Z,102168.22
2019-01-02T02:12:32.353Z,102156.45
2019-01-02T02:17:35.038Z,102169.84
2019-01-02T02:22:57.229Z,102182.44
2019-01-02T02:28:21.319Z,102187.27
2019-01-02T02:33:43.527Z,102200.36
2019-01-02T02:38:48.304Z,102198.21
2019-01-02T02:43:52.896Z,102197.34
2019-01-02T02:48:55.600Z,102202.59
2019-01-02T02:53:58.683Z,102212.92
2019-01-02T02:59:21.077Z,102228.14
2019-01-02T03:04:25.655Z,102218.22
2019-01-02T03:09:48.228Z,102219.13
2019-01-02T03:14:51.301Z,102245.20
2019-01-02T03:20:20.953Z,102240.89
2019-01-02T03:25:43.133Z,102256.05
2019-01-02T03:30:47.700Z,102259.53
2019-01-02T03:35:50.669Z,102271.67
2019-01-02T03:41:12.859Z,102260.44
2019-01-02T03:46:35.038Z,102145.06
2019-01-02T03:51:50.808Z,102233.37
2019-01-02T03:57:12.993Z,102301.23
2019-01-02T04:02:15.661Z,102059.61
2019-01-02T04:07:38.002Z,102292.55
2019-01-02T04:13:00.182Z,101927.84
2019-01-02T04:18:22.363Z,102310.70
2019-01-02T04:23:44.548Z,102305.50
2019-01-02T04:28:47.228Z,102297.25
2019-01-02T04:34:09.404Z,102290.27
2019-01-02T04:39:31.582Z,101927.71
2019-01-02T04:44:34.247Z,102320.52
2019-01-02T04:49:50.690Z,102296.27
2019-01-02T04:54:53.416Z,102325.72
2019-01-02T05:00:16.777Z,102304.89
2019-01-02T05:05:38.970Z,102169.75
2019-01-02T05:11:01.146Z,102316.91
2019-01-02T05:16:23.332Z,102317.76
2019-01-02T05:21:45.512Z,102289.38
2019-01-02T05:27:07.765Z,102349.80
2019-01-02T05:32:29.936Z,102330.31
2019-01-02T05:37:32.607Z,102087.20
2019-01-02T05:42:54.785Z,102331.23
2019-01-02T05:48:10.707Z,102341.69
2019-01-02T05:53:32.886Z,102339.11
2019-01-02T05:58:55.077Z,102366.34
2019-01-02T06:03:57.766Z,102008.05
2019-01-02T06:09:19.960Z,102385.73
2019-01-02T06:14:42.148Z,102377.27
2019-01-02T06:20:07.559Z,102391.78
2019-01-02T06:25:10.305Z,102396.09
2019-01-02T06:30:13.140Z,102392.44
2019-01-02T06:35:35.333Z,102407.68
2019-01-02T06:40:57.518Z,102188.83
2019-01-02T06:46:20.173Z,102154.44
2019-01-02T06:51:37.111Z,102438.09
2019-01-02T06:56:59.295Z,102471.95
2019-01-02T07:02:21.477Z,102461.50
2019-01-02T07:07:24.153Z,102233.42
2019-01-02T07:12:46.327Z,102482.02
2019-01-02T07:18:08.820Z,102490.00
2019-01-02T07:23:31.021Z,102033.59
2019-01-02T07:28:53.203Z,102541.52
2019-01-02T07:34:38.024Z,102317.53
2019-01-02T07:40:34.286Z,102553.94
2019-01-02T07:46:35.468Z,102566.78
2019-01-02T07:52:16.499Z,102164.89
2019-01-02T07:58:20.725Z,102340.30
2019-01-02T08:04:21.895Z,102561.63
2019-01-02T08:10:27.383Z,102598.39
2019-01-02T08:16:31.887Z,102608.13
2019-01-02T08:22:33.053Z,102610.52
2019-01-02T08:28:25.754Z,102626.92
2019-01-02T08:34:26.872Z,102632.68
2019-01-02T08:40:13.610Z,102646.60
2019-01-02T08:46:14.781Z,102662.70
2019-01-02T08:51:49.861Z,102677.07
2019-01-02T08:57:51.033Z,102685.72
2019-01-02T09:03:40.386Z,102715.38
2019-01-02T09:09:30.513Z,102655.16
2019-01-02T09:15:31.723Z,102720.20
2019-01-02T09:21:21.100Z,102722.43
2019-01-02T09:27:10.058Z,102749.78
2019-01-02T09:33:11.245Z,102742.86
2019-01-02T09:38:48.457Z,102758.92
2019-01-02T09:44:49.639Z,102790.73
2019-01-02T09:50:38.764Z,102782.97
2019-01-02T09:56:26.568Z,102776.89
2019-01-02T10:02:27.779Z,102775.50
2019-01-02T10:08:28.942Z,102786.33
2019-01-02T10:14:30.129Z,102552.03
2019-01-02T10:20:31.285Z,102807.17
2019-01-02T10:26:17.677Z,102682.34
2019-01-02T10:32:18.844Z,102827.09
2019-01-02T10:38:13.697Z,102816.92
2019-01-02T10:44:03.366Z,102826.05
2019-01-02T10:50:04.602Z,102516.55
2019-01-02T10:55:26.031Z,102835.69
2019-01-02T11:01:22.521Z,102834.96
2019-01-02T11:07:23.715Z,102663.33
2019-01-02T11:13:10.704Z,102831.29
2019-01-02T11:19:04.194Z,102837.06
2019-01-02T11:24:56.476Z,102837.08
2019-01-02T11:30:45.434Z,102831.69
2019-01-02T11:36:46.601Z,102833.70
2019-01-02T11:42:33.317Z,102838.22
2019-01-02T11:47:36.018Z,102847.47
2019-01-02T11:52:58.202Z,102844.23
2019-01-02T11:58:20.386Z,102843.83
2019-01-02T12:03:42.687Z,102689.75
2019-01-02T12:08:45.391Z,102837.19
2019-01-02T12:14:07.701Z,102852.95
2019-01-02T12:19:10.447Z,102876.48
2019-01-02T12:24:13.156Z,102857.47
2019-01-02T12:29:15.831Z,102860.53
2019-01-02T12:39:34.872Z,102878.63
2019-01-02T12:44:37.546Z,102874.30
2019-01-02T12:49:40.242Z,102887.34
2019-01-02T12:55:03.677Z,102876.94
2019-01-02T13:00:47.668Z,102880.84
2019-01-02T13:06:48.884Z,102638.11
2019-01-02T13:12:33.385Z,102900.64
2019-01-02T13:18:34.591Z,102906.42
2019-01-02T13:24:06.787Z,102924.61
2019-01-02T13:30:07.959Z,102912.97
2019-01-02T13:35:53.483Z,102926.43
2019-01-02T13:41:38.319Z,102931.78
2019-01-02T13:47:26.567Z,102932.59
2019-01-02T13:52:41.450Z,102939.86
2019-01-02T13:58:03.633Z,102964.01
2019-01-02T14:03:27.095Z,102952.75
2019-01-02T14:08:31.622Z,102957.28
2019-01-02T14:13:55.842Z,102955.05
2019-01-02T14:18:59.773Z,102968.09
2019-01-02T14:24:23.620Z,102947.20
2019-01-02T14:29:47.683Z,102956.30
2019-01-02T14:35:09.904Z,102865.86
2019-01-02T14:40:32.106Z,102962.06
2019-01-02T14:45:34.794Z,102984.59
2019-01-02T14:50:51.037Z,102973.65
2019-01-02T14:56:13.218Z,102973.24
2019-01-02T15:01:35.416Z,102986.05
2019-01-02T15:06:38.108Z,103023.28
2019-01-02T15:12:00.330Z,102993.68
2019-01-02T15:17:03.020Z,103004.14
2019-01-02T15:22:05.769Z,103010.45
2019-01-02T15:27:08.446Z,103005.13
2019-01-02T15:32:30.734Z,103005.92
2019-01-02T15:37:52.918Z,103026.14
2019-01-02T15:43:15.103Z,103035.33
2019-01-02T15:48:17.813Z,103053.11
2019-01-02T15:53:40.260Z,103052.31
2019-01-02T15:59:02.453Z,103055.12
2019-01-02T16:04:24.685Z,103071.28
2019-01-02T16:09:46.882Z,102814.47
2019-01-02T16:14:49.685Z,103081.56
2019-01-02T16:19:52.383Z,103081.05
2019-01-02T16:30:09.893Z,103095.80
2019-01-02T16:35:12.597Z,103092.16
2019-01-02T16:40:34.791Z,103098.94
2019-01-02T16:45:37.487Z,103100.45
2019-01-02T16:50:40.325Z,103100.21
2019-01-02T16:56:02.507Z,103116.50
2019-01-02T17:01:24.700Z,103138.10
2019-01-02T17:06:46.892Z,103110.39
2019-01-02T17:12:09.071Z,102873.62
2019-01-02T17:17:31.259Z,103133.80
2019-01-02T17:22:53.443Z,103124.00
2019-01-02T17:27:56.139Z,102999.87
2019-01-02T17:33:18.332Z,103130.24
2019-01-02T17:38:21.024Z,103150.67
2019-01-02T17:43:43.212Z,103133.08
2019-01-02T17:48:45.916Z,103137.14
2019-01-02T17:54:08.102Z,103143.84
2019-01-02T17:59:10.797Z,103148.08
2019-01-02T18:04:33.028Z,103142.68
2019-01-02T18:09:55.223Z,103151.70
2019-01-02T18:15:17.406Z,103180.19
2019-01-02T18:20:39.617Z,103193.30
2019-01-02T18:26:01.768Z,103171.28
2019-01-02T18:31:06.085Z,103172.89
2019-01-02T18:36:09.052Z,103171.50
2019-01-02T18:46:41.858Z,103172.30
2019-01-02T18:51:57.651Z,103196.05
2019-01-02T18:57:19.840Z,103182.20
2019-01-02T19:02:42.033Z,103200.59
2019-01-02T19:07:44.807Z,102783.27
2019-01-02T19:13:07.091Z,103192.89
2019-01-02T19:18:29.274Z,102946.88
2019-01-02T19:23:31.974Z,103219.46
2019-01-02T19:28:54.170Z,103204.98
2019-01-02T19:34:16.365Z,103237.74
2019-01-02T19:39:38.552Z,103167.97
2019-01-02T19:45:00.748Z,103233.35
2019-01-02T19:50:16.215Z,103212.95
2019-01-02T19:55:38.426Z,102915.45
2019-01-02T20:01:00.604Z,103229.56
2019-01-02T20:06:22.854Z,102958.55
2019-01-02T20:11:45.048Z,103222.87
2019-01-02T20:16:47.775Z,103219.24
2019-01-02T20:21:50.545Z,103214.82
2019-01-02T20:27:12.732Z,103216.52
2019-01-02T20:32:34.911Z,103239.68
2019-01-02T20:37:57.097Z,103215.95
2019-01-02T20:43:19.278Z,103221.81
2019-01-02T20:48:34.387Z,103228.06
2019-01-02T20:53:56.569Z,103207.29
2019-01-02T20:58:59.322Z,103207.67
2019-01-02T21:04:02.027Z,103211.70
2019-01-02T21:09:07.104Z,103209.73
2019-01-02T21:14:29.286Z,103206.89
2019-01-02T21:19:51.484Z,103204.80
2019-01-02T21:25:13.678Z,103216.28
2019-01-02T21:30:16.346Z,102923.91
2019-01-02T21:35:38.539Z,103201.66
2019-01-02T21:41:02.529Z,103197.84
2019-01-02T21:46:05.207Z,102837.22
2019-01-02T21:51:20.113Z,103206.89
2019-01-02T21:56:23.053Z,103205.05
2019-01-02T22:01:45.302Z,103197.42
2019-01-02T22:06:47.997Z,103188.23
2019-01-02T22:12:10.177Z,103181.63
2019-01-02T22:17:32.354Z,102863.66
2019-01-02T22:22:35.078Z,103185.78
2019-01-02T22:27:57.363Z,103181.97
2019-01-02T22:33:19.546Z,103185.92
2019-01-02T22:38:41.732Z,103188.63
2019-01-02T22:43:44.402Z,103184.32
2019-01-02T22:48:47.117Z,103177.53
2019-01-02T22:54:09.296Z,103175.53
2019-01-02T22:59:31.480Z,103178.22
2019-01-02T23:05:13.264Z,102802.91
2019-01-02T23:10:55.087Z,103193.34
2019-01-02T23:16:36.916Z,103172.25
2019-01-02T23:22:18.730Z,103193.89
2019-01-02T23:27:41.018Z,103193.89
2019-01-02T23:33:22.793Z,103179.80
2019-01-02T23:38:45.071Z,103046.83
2019-01-02T23:44:07.421Z,103180.48
2019-01-02T23:49:44.626Z,103179.95
2019-01-02T23:55:15.053Z,103187.91
